createdAt,value
2018-04-23T00:02:24.717Z,8.80
2018-04-23T00:07:15.741Z,9.27
2018-04-23T00:12:06.777Z,11.37
2018-04-23T00:16:57.826Z,8.23
2018-04-23T00:21:48.836Z,10.70
2018-04-23T00:26:39.912Z,11.83
2018-04-23T00:31:31.672Z,8.93
2018-04-23T00:36:23.432Z,8.17
2018-04-23T00:41:14.461Z,7.90
2018-04-23T00:46:05.512Z,6.90
2018-04-23T00:50:56.545Z,10.67
2018-04-23T00:55:47.618Z,9.43
2018-04-23T01:00:38.632Z,10.10
2018-04-23T01:05:29.667Z,8.37
2018-04-23T01:10:20.704Z,8.13
2018-04-23T01:15:11.710Z,11.53
2018-04-23T01:20:02.721Z,9.77
2018-04-23T01:24:53.720Z,10.10
2018-04-23T01:29:45.512Z,13.90
2018-04-23T01:34:36.524Z,13.33
2018-04-23T01:39:27.575Z,8.10
2018-04-23T01:44:18.573Z,7.80
2018-04-23T01:49:09.570Z,8.17
2018-04-23T01:54:01.304Z,9.80
2018-04-23T01:58:53.043Z,8.90
2018-04-23T02:03:44.854Z,10.97
2018-04-23T02:08:37.343Z,9.20
2018-04-23T02:13:29.095Z,9.50
2018-04-23T02:18:20.115Z,9.47
2018-04-23T02:23:11.851Z,8.70
2018-04-23T02:28:03.624Z,12.13
2018-04-23T02:32:54.672Z,9.87
2018-04-23T02:37:45.675Z,13.33
2018-04-23T02:42:37.642Z,12.03
2018-04-23T02:47:28.640Z,10.03
2018-04-23T02:52:19.676Z,11.63
2018-04-23T02:57:10.742Z,13.77
2018-04-23T03:02:02.484Z,10.07
2018-04-23T03:06:54.230Z,9.77
2018-04-23T03:11:46.014Z,11.47
2018-04-23T03:16:37.017Z,12.60
2018-04-23T03:21:28.058Z,10.40
2018-04-23T03:26:19.062Z,13.03
2018-04-23T03:31:10.837Z,10.60
2018-04-23T03:36:01.862Z,12.27
2018-04-23T03:40:53.075Z,12.50
2018-04-23T03:45:44.071Z,11.33
2018-04-23T03:50:35.149Z,15.67
2018-04-23T03:55:26.169Z,15.80
2018-04-23T04:00:18.025Z,13.80
2018-04-23T04:05:09.784Z,15.70
2018-04-23T04:10:00.803Z,16.20
2018-04-23T04:15:11.452Z,17.07
2018-04-23T04:20:02.456Z,15.60
2018-04-23T04:24:53.467Z,12.07
2018-04-23T04:29:44.492Z,17.67
2018-04-23T04:34:36.999Z,11.77
2018-04-23T04:39:28.807Z,11.77
2018-04-23T04:44:19.807Z,17.73
2018-04-23T04:49:10.886Z,13.57
2018-04-23T04:54:02.675Z,14.63
2018-04-23T04:58:54.463Z,11.90
2018-04-23T05:03:46.211Z,13.67
2018-04-23T05:08:38.059Z,10.07
2018-04-23T05:13:29.795Z,11.87
2018-04-23T05:18:21.650Z,11.87
2018-04-23T05:23:12.624Z,12.33
2018-04-23T05:28:04.432Z,12.67
2018-04-23T05:32:55.458Z,14.93
2018-04-23T05:37:46.534Z,12.07
2018-04-23T05:42:38.447Z,12.50
2018-04-23T05:47:29.450Z,12.73
2018-04-23T05:52:20.468Z,13.87
2018-04-23T05:57:11.545Z,12.07
2018-04-23T06:02:03.412Z,15.30
2018-04-23T06:06:54.452Z,14.17
2018-04-23T06:11:45.459Z,10.37
2018-04-23T06:16:36.533Z,12.77
2018-04-23T06:21:27.660Z,16.60
2018-04-23T06:26:18.652Z,13.93
2018-04-23T06:31:09.687Z,12.00
2018-04-23T06:36:00.686Z,13.00
2018-04-23T06:40:51.696Z,12.93
2018-04-23T06:45:42.700Z,13.83
2018-04-23T06:50:34.460Z,11.03
2018-04-23T06:55:25.560Z,14.53
2018-04-23T07:00:17.346Z,12.30
2018-04-23T07:05:08.481Z,14.60
2018-04-23T07:09:59.411Z,12.27
2018-04-23T07:14:50.407Z,11.93
2018-04-23T07:19:41.513Z,10.57
2018-04-23T07:24:33.372Z,12.23
2018-04-23T07:29:24.383Z,14.83
2018-04-23T07:34:15.413Z,9.73
2018-04-23T07:39:06.518Z,13.63
2018-04-23T07:43:57.543Z,11.00
2018-04-23T07:48:49.308Z,13.30
2018-04-23T07:53:40.328Z,13.73
2018-04-23T07:58:31.407Z,11.30
2018-04-23T08:03:22.405Z,9.87
2018-04-23T08:08:13.500Z,11.47
2018-04-23T08:13:04.575Z,12.83
2018-04-23T08:17:55.575Z,11.37
2018-04-23T08:22:49.724Z,10.47
2018-04-23T08:27:40.719Z,11.37
2018-04-23T08:32:31.787Z,13.73
2018-04-23T08:37:22.794Z,12.90
2018-04-23T08:42:13.892Z,11.93
2018-04-23T08:47:04.940Z,13.90
2018-04-23T08:51:55.963Z,11.60
2018-04-23T08:56:46.999Z,7.23
2018-04-23T09:01:37.993Z,6.93
2018-04-23T09:06:29.739Z,8.80
2018-04-23T09:11:21.529Z,10.77
2018-04-23T09:16:12.617Z,8.07
2018-04-23T09:21:03.656Z,12.50
2018-04-23T09:25:54.731Z,18.17
2018-04-23T09:30:46.197Z,9.80
2018-04-23T09:35:37.268Z,12.97
2018-04-23T09:40:28.421Z,13.63
2018-04-23T09:45:20.324Z,13.60
2018-04-23T09:50:11.402Z,12.97
2018-04-23T09:55:02.391Z,13.60
2018-04-23T09:59:53.407Z,10.10
2018-04-23T10:04:44.551Z,17.53
2018-04-23T10:09:35.560Z,15.07
2018-04-23T10:14:26.660Z,14.27
2018-04-23T10:19:17.688Z,16.23
2018-04-23T10:24:08.806Z,15.63
2018-04-23T10:28:59.812Z,17.50
2018-04-23T10:33:50.867Z,19.67
2018-04-23T10:38:41.972Z,19.73
2018-04-23T10:43:33.025Z,17.40
2018-04-23T10:48:24.210Z,18.57
2018-04-23T10:53:15.215Z,23.67
2018-04-23T10:58:06.228Z,16.00
2018-04-23T11:02:57.979Z,22.00
2018-04-23T11:07:49.042Z,16.13
2018-04-23T11:12:40.055Z,13.80
2018-04-23T11:17:31.868Z,21.17
2018-04-23T11:22:22.871Z,16.20
2018-04-23T11:27:14.612Z,15.73
2018-04-23T11:32:06.440Z,14.23
2018-04-23T11:36:57.451Z,14.70
2018-04-23T11:41:48.519Z,13.70
2018-04-23T11:46:39.870Z,13.17
2018-04-23T11:51:31.196Z,10.80
2018-04-23T11:56:22.280Z,12.57
2018-04-23T12:01:14.037Z,13.83
2018-04-23T12:06:05.908Z,16.57
2018-04-23T12:10:56.931Z,14.40
2018-04-23T12:15:47.931Z,13.53
2018-04-23T12:20:38.968Z,16.90
2018-04-23T12:25:29.967Z,16.40
2018-04-23T12:30:21.741Z,13.40
2018-04-23T12:35:12.735Z,16.17
2018-04-23T12:40:04.552Z,14.13
2018-04-23T12:44:55.578Z,13.50
2018-04-23T12:49:46.642Z,14.90
2018-04-23T12:54:37.657Z,17.40
2018-04-23T12:59:29.540Z,14.00
2018-04-23T13:04:20.625Z,15.60
2018-04-23T13:09:12.391Z,18.90
2018-04-23T13:14:03.390Z,15.50
2018-04-23T13:18:54.456Z,19.77
2018-04-23T13:23:45.479Z,20.23
2018-04-23T13:28:36.644Z,15.97
2018-04-23T13:33:29.224Z,13.73
2018-04-23T13:38:27.144Z,17.30
2018-04-23T13:43:18.167Z,16.73
2018-04-23T13:48:09.280Z,13.47
2018-04-23T13:53:00.295Z,16.97
2018-04-23T13:57:51.411Z,13.00
2018-04-23T14:02:42.437Z,14.90
2018-04-23T14:07:33.485Z,12.30
2018-04-23T14:12:24.522Z,13.17
2018-04-23T14:17:15.536Z,12.33
2018-04-23T14:22:06.607Z,14.17
2018-04-23T14:26:58.355Z,13.67
2018-04-23T14:31:50.097Z,12.43
2018-04-23T14:36:41.181Z,14.97
2018-04-23T14:41:32.207Z,12.67
2018-04-23T14:46:23.212Z,12.43
2018-04-23T14:51:14.278Z,12.53
2018-04-23T14:56:06.048Z,10.70
2018-04-23T15:00:58.193Z,11.53
2018-04-23T15:05:49.372Z,14.47
2018-04-23T15:10:40.541Z,9.93
2018-04-23T15:15:31.643Z,9.70
2018-04-23T15:20:23.422Z,7.73
2018-04-23T15:25:14.559Z,5.70
2018-04-23T15:30:05.722Z,10.27
2018-04-23T15:34:57.495Z,8.73
2018-04-23T15:39:48.499Z,6.20
2018-04-23T15:44:40.272Z,6.17
2018-04-23T15:49:31.308Z,5.83
2018-04-23T15:54:22.375Z,8.17
2018-04-23T15:59:14.164Z,3.77
2018-04-23T16:04:05.280Z,9.70
2018-04-23T16:08:56.295Z,4.40
2018-04-23T16:13:47.320Z,5.50
2018-04-23T16:18:38.329Z,6.10
2018-04-23T16:23:29.416Z,4.80
2018-04-23T16:28:20.475Z,9.27
2018-04-23T16:33:11.532Z,5.13
2018-04-23T16:38:02.543Z,5.57
2018-04-23T16:42:53.555Z,5.37
2018-04-23T16:47:44.599Z,6.57
2018-04-23T16:52:35.607Z,4.60
2018-04-23T16:57:26.742Z,4.67
2018-04-23T17:02:17.782Z,5.67
2018-04-23T17:07:08.787Z,9.80
2018-04-23T17:11:59.811Z,6.33
2018-04-23T17:16:50.823Z,4.57
2018-04-23T17:21:41.951Z,6.80
2018-04-23T17:26:32.977Z,6.07
2018-04-23T17:31:24.049Z,7.47
2018-04-23T17:36:15.149Z,12.30
2018-04-23T17:41:06.173Z,9.77
2018-04-23T17:45:57.992Z,9.40
2018-04-23T17:50:49.007Z,8.00
2018-04-23T17:55:40.108Z,6.87
2018-04-23T18:00:31.962Z,12.67
2018-04-23T18:05:22.984Z,12.60
2018-04-23T18:10:14.024Z,12.03
2018-04-23T18:15:05.047Z,14.37
2018-04-23T18:19:56.092Z,15.30
2018-04-23T18:24:47.123Z,17.07
2018-04-23T18:29:38.121Z,17.03
2018-04-23T18:34:29.120Z,11.30
2018-04-23T18:39:20.206Z,11.57
2018-04-23T18:44:11.279Z,14.67
2018-04-23T18:49:02.271Z,10.97
2018-04-23T18:53:54.031Z,12.93
2018-04-23T18:58:45.780Z,10.70
2018-04-23T19:03:36.900Z,16.33
2018-04-23T19:08:27.896Z,11.03
2018-04-23T19:13:18.892Z,13.90
2018-04-23T19:18:09.962Z,14.30
2018-04-23T19:23:01.008Z,13.70
2018-04-23T19:27:52.045Z,12.83
2018-04-23T19:32:43.053Z,14.97
2018-04-23T19:37:34.055Z,12.87
2018-04-23T19:42:25.301Z,17.93
2018-04-23T19:47:16.324Z,13.83
2018-04-23T19:52:07.330Z,13.80
2018-04-23T19:56:58.331Z,14.10
2018-04-23T20:01:50.083Z,17.53
2018-04-23T20:06:41.893Z,16.30
2018-04-23T20:11:32.929Z,16.77
2018-04-23T20:16:23.936Z,18.17
2018-04-23T20:21:15.006Z,22.00
2018-04-23T20:26:06.056Z,16.30
2018-04-23T20:30:57.063Z,15.03
2018-04-23T20:35:48.072Z,16.17
2018-04-23T20:40:39.071Z,15.20
2018-04-23T20:45:30.828Z,11.43
2018-04-23T20:50:22.616Z,11.20
2018-04-23T20:55:13.628Z,9.50
2018-04-23T21:00:04.640Z,10.10
2018-04-23T21:04:55.648Z,10.90
2018-04-23T21:09:46.696Z,12.10
2018-04-23T21:14:37.699Z,9.73
2018-04-23T21:19:28.750Z,9.83
2018-04-23T21:24:19.771Z,8.90
2018-04-23T21:29:10.823Z,10.37
2018-04-23T21:34:01.846Z,9.23
2018-04-23T21:38:52.887Z,12.33
2018-04-23T21:43:44.717Z,11.93
2018-04-23T21:48:36.483Z,12.97
2018-04-23T21:53:27.483Z,9.17
2018-04-23T21:58:18.572Z,9.37
2018-04-23T22:03:09.600Z,12.17
2018-04-23T22:08:00.643Z,8.70
2018-04-23T22:12:51.751Z,11.27
2018-04-23T22:17:42.752Z,14.70
2018-04-23T22:22:33.754Z,10.17
2018-04-23T22:27:24.758Z,12.03
2018-04-23T22:32:16.524Z,13.17
2018-04-23T22:37:07.553Z,8.10
2018-04-23T22:41:58.560Z,11.57
2018-04-23T22:46:49.986Z,8.87
2018-04-23T22:51:41.031Z,10.17
2018-04-23T22:56:32.127Z,7.97
2018-04-23T23:01:23.129Z,8.37
2018-04-23T23:06:14.886Z,9.57
2018-04-23T23:11:06.670Z,9.83
2018-04-23T23:15:57.715Z,9.37
2018-04-23T23:20:49.488Z,12.57
2018-04-23T23:25:41.235Z,9.83
2018-04-23T23:30:32.269Z,7.70
2018-04-23T23:35:23.255Z,8.77
2018-04-23T23:40:15.028Z,7.93
2018-04-23T23:45:06.163Z,11.80
2018-04-23T23:49:57.200Z,9.70
2018-04-23T23:54:48.201Z,10.20
2018-04-23T23:59:39.257Z,8.93
